createdAt,value
2023-01-29T00:01:26.741Z,6.35
2023-01-29T00:04:00.103Z,6.30
2023-01-29T00:09:07.596Z,7.00
2023-01-29T00:11:41.514Z,6.88
2023-01-29T00:14:15.943Z,6.93
2023-01-29T00:16:49.593Z,6.35
2023-01-29T00:19:28.955Z,6.55
2023-01-29T00:22:06.762Z,6.15
2023-01-29T00:24:40.537Z,6.10
2023-01-29T00:27:13.949Z,6.22
2023-01-29T00:30:08.020Z,5.55
2023-01-29T00:32:41.548Z,5.50
2023-01-29T00:35:15.048Z,5.55
2023-01-29T00:37:49.579Z,5.20
2023-01-29T00:40:24.599Z,4.60
2023-01-29T00:43:27.374Z,4.53
2023-01-29T00:46:00.591Z,4.13
2023-01-29T00:48:34.744Z,4.25
2023-01-29T00:51:09.094Z,4.25
2023-01-29T00:53:42.722Z,4.07
2023-01-29T00:58:49.415Z,3.85
2023-01-29T01:01:43.852Z,3.90
2023-01-29T01:04:30.462Z,3.95
2023-01-29T01:10:05.681Z,3.95
2023-01-29T01:12:51.736Z,3.63
2023-01-29T01:15:40.805Z,4.00
2023-01-29T01:18:25.509Z,3.70
2023-01-29T01:21:00.109Z,4.38
2023-01-29T01:23:34.074Z,3.60
2023-01-29T01:26:11.436Z,4.10
2023-01-29T01:28:45.656Z,3.95
2023-01-29T01:31:19.741Z,3.92
2023-01-29T01:33:54.894Z,4.03
2023-01-29T01:36:28.301Z,4.50
2023-01-29T01:41:35.294Z,4.00
2023-01-29T01:44:08.884Z,4.10
2023-01-29T01:46:42.361Z,4.22
2023-01-29T01:49:22.234Z,3.97
2023-01-29T01:51:55.999Z,4.32
2023-01-29T01:54:33.227Z,3.80
2023-01-29T01:57:19.004Z,3.70
2023-01-29T02:00:13.456Z,4.05
2023-01-29T02:03:06.296Z,3.83
2023-01-29T02:06:00.403Z,3.60
2023-01-29T02:11:45.592Z,4.05
2023-01-29T02:14:18.935Z,3.75
2023-01-29T02:16:52.723Z,3.70
2023-01-29T02:19:51.049Z,4.07
2023-01-29T02:22:41.826Z,3.97
2023-01-29T02:25:38.909Z,4.43
2023-01-29T02:28:22.900Z,3.63
2023-01-29T02:31:06.539Z,3.30
2023-01-29T02:36:38.113Z,3.67
2023-01-29T02:39:13.804Z,3.17
2023-01-29T02:42:11.999Z,3.42
2023-01-29T02:44:52.631Z,3.20
2023-01-29T02:47:40.468Z,4.28
2023-01-29T02:50:36.851Z,4.75
2023-01-29T02:53:38.081Z,3.60
2023-01-29T02:56:40.487Z,3.45
2023-01-29T02:59:17.921Z,4.07
2023-01-29T03:02:10.113Z,3.72
2023-01-29T03:04:46.867Z,3.58
2023-01-29T03:07:42.768Z,3.35
2023-01-29T03:10:20.889Z,3.50
2023-01-29T03:13:10.793Z,3.72
2023-01-29T03:15:48.734Z,3.60
2023-01-29T03:18:51.011Z,3.35
2023-01-29T03:21:51.730Z,4.10
2023-01-29T03:24:54.859Z,4.05
2023-01-29T03:27:58.641Z,3.95
2023-01-29T03:31:01.572Z,3.92
2023-01-29T03:34:04.634Z,3.70
2023-01-29T03:36:46.240Z,3.88
2023-01-29T03:39:19.635Z,3.40
2023-01-29T03:41:59.097Z,4.05
2023-01-29T03:44:53.219Z,3.60
2023-01-29T03:47:54.977Z,3.92
2023-01-29T03:50:42.336Z,3.80
2023-01-29T03:53:22.210Z,3.92
2023-01-29T03:56:19.906Z,4.00
2023-01-29T03:59:01.967Z,3.38
2023-01-29T04:01:58.328Z,4.20
2023-01-29T04:04:37.269Z,3.90
2023-01-29T04:07:14.991Z,4.15
2023-01-29T04:10:00.736Z,4.00
2023-01-29T04:12:48.598Z,4.00
2023-01-29T04:15:24.491Z,4.15
2023-01-29T04:17:58.431Z,4.60
2023-01-29T04:20:44.478Z,4.65
2023-01-29T04:26:28.661Z,3.60
2023-01-29T04:29:25.846Z,3.63
2023-01-29T04:32:39.178Z,4.35
2023-01-29T04:35:39.534Z,4.38
2023-01-29T04:38:48.051Z,4.28
2023-01-29T04:41:33.544Z,4.28
2023-01-29T04:44:17.681Z,4.80
2023-01-29T04:46:53.398Z,4.90
2023-01-29T04:49:53.800Z,4.90
2023-01-29T04:52:35.191Z,4.20
2023-01-29T04:55:21.694Z,3.85
2023-01-29T04:58:16.085Z,3.50
2023-01-29T05:00:53.763Z,4.00
2023-01-29T05:03:27.721Z,3.92
2023-01-29T05:06:02.373Z,4.32
2023-01-29T05:08:37.946Z,4.53
2023-01-29T05:11:11.405Z,3.90
2023-01-29T05:13:44.167Z,4.43
2023-01-29T05:16:22.408Z,4.20
2023-01-29T05:18:55.775Z,4.18
2023-01-29T05:21:28.846Z,4.07
2023-01-29T05:24:22.694Z,4.03
2023-01-29T05:27:13.833Z,3.97
2023-01-29T05:29:48.191Z,4.60
2023-01-29T05:32:20.766Z,4.63
2023-01-29T05:34:53.394Z,4.05
2023-01-29T05:37:26.018Z,3.97
2023-01-29T05:39:58.639Z,4.68
2023-01-29T05:42:31.182Z,4.22
2023-01-29T05:45:03.939Z,4.50
2023-01-29T05:47:36.549Z,4.55
2023-01-29T05:50:09.805Z,4.90
2023-01-29T05:52:51.833Z,4.20
2023-01-29T05:55:32.440Z,4.15
2023-01-29T05:58:12.195Z,4.13
2023-01-29T06:00:55.374Z,4.20
2023-01-29T06:03:41.692Z,4.05
2023-01-29T06:06:25.211Z,4.32
2023-01-29T06:09:03.064Z,4.55
2023-01-29T06:11:43.353Z,4.47
2023-01-29T06:14:25.859Z,5.15
2023-01-29T06:17:04.597Z,4.43
2023-01-29T06:19:45.582Z,4.35
2023-01-29T06:22:29.496Z,4.72
2023-01-29T06:25:06.791Z,4.72
2023-01-29T06:27:51.402Z,4.90
2023-01-29T06:30:35.350Z,4.60
2023-01-29T06:33:20.471Z,4.65
2023-01-29T06:36:09.366Z,5.45
2023-01-29T06:38:52.800Z,6.30
2023-01-29T06:41:33.822Z,6.32
2023-01-29T06:44:21.079Z,5.63
2023-01-29T06:47:01.936Z,6.40
2023-01-29T06:49:39.296Z,5.85
2023-01-29T06:52:20.676Z,6.00
2023-01-29T06:55:09.692Z,6.18
2023-01-29T06:57:51.253Z,5.93
2023-01-29T07:00:31.480Z,7.20
2023-01-29T07:03:33.432Z,6.45
2023-01-29T07:06:49.284Z,5.65
2023-01-29T07:09:34.442Z,5.63
2023-01-29T07:12:14.639Z,6.20
2023-01-29T07:14:52.584Z,6.82
2023-01-29T07:17:31.067Z,5.40
2023-01-29T07:20:24.422Z,5.05
2023-01-29T07:23:13.494Z,5.53
2023-01-29T07:25:59.210Z,5.03
2023-01-29T07:28:44.415Z,5.45
2023-01-29T07:31:29.443Z,5.63
2023-01-29T07:34:08.059Z,4.95
2023-01-29T07:36:51.583Z,6.97
2023-01-29T07:39:29.176Z,5.32
2023-01-29T07:42:06.878Z,5.38
2023-01-29T07:44:48.033Z,5.22
2023-01-29T07:47:26.571Z,6.40
2023-01-29T07:50:04.471Z,5.88
2023-01-29T07:52:42.356Z,6.90
2023-01-29T07:55:21.467Z,6.30
2023-01-29T07:57:59.513Z,7.22
2023-01-29T08:00:40.947Z,7.05
2023-01-29T08:03:22.461Z,6.80
2023-01-29T08:06:02.194Z,6.70
2023-01-29T08:08:44.566Z,7.18
2023-01-29T08:11:18.417Z,6.35
2023-01-29T08:13:50.935Z,6.50
2023-01-29T08:16:23.810Z,7.13
2023-01-29T08:18:56.473Z,6.43
2023-01-29T08:21:29.150Z,7.50
2023-01-29T08:26:39.099Z,6.78
2023-01-29T08:29:12.491Z,7.28
2023-01-29T08:34:17.573Z,7.20
2023-01-29T08:36:50.043Z,7.35
2023-01-29T08:39:22.627Z,6.10
2023-01-29T08:41:55.127Z,5.93
2023-01-29T08:44:27.765Z,5.87
2023-01-29T08:47:00.316Z,6.63
2023-01-29T08:49:32.952Z,6.45
2023-01-29T08:52:05.692Z,6.32
2023-01-29T08:54:38.235Z,6.45
2023-01-29T08:57:10.960Z,6.55
2023-01-29T08:59:43.432Z,6.75
2023-01-29T09:02:16.057Z,9.13
2023-01-29T09:04:48.630Z,8.00
2023-01-29T09:07:22.079Z,6.60
2023-01-29T09:09:55.554Z,6.70
2023-01-29T09:15:00.629Z,9.40
2023-01-29T09:17:33.227Z,10.13
2023-01-29T09:20:08.871Z,10.73
2023-01-29T09:22:41.465Z,10.32
2023-01-29T09:25:14.324Z,10.70
2023-01-29T09:27:47.317Z,9.35
2023-01-29T09:33:07.390Z,8.52
2023-01-29T09:35:43.802Z,8.48
2023-01-29T09:38:16.329Z,8.35
2023-01-29T09:41:17.869Z,8.00
2023-01-29T09:43:57.063Z,7.15
2023-01-29T09:46:43.559Z,8.05
2023-01-29T09:49:30.025Z,7.32
2023-01-29T09:52:07.761Z,7.28
2023-01-29T09:55:08.858Z,5.68
2023-01-29T09:57:52.504Z,4.88
2023-01-29T10:03:27.901Z,4.25
2023-01-29T10:06:21.900Z,4.18
2023-01-29T10:09:24.515Z,4.38
2023-01-29T10:12:20.538Z,5.35
2023-01-29T10:15:06.363Z,6.10
2023-01-29T10:18:01.207Z,5.95
2023-01-29T10:21:05.375Z,4.93
2023-01-29T10:23:47.177Z,5.63
2023-01-29T10:26:25.283Z,5.55
2023-01-29T10:29:08.296Z,5.38
2023-01-29T10:31:54.841Z,5.13
2023-01-29T10:34:43.549Z,5.40
2023-01-29T10:37:32.170Z,5.65
2023-01-29T10:40:30.678Z,5.05
2023-01-29T10:43:24.339Z,5.45
2023-01-29T10:49:00.650Z,6.13
2023-01-29T10:51:53.867Z,4.72
2023-01-29T10:55:01.867Z,5.00
2023-01-29T10:57:46.462Z,5.13
2023-01-29T11:00:46.676Z,4.60
2023-01-29T11:03:28.846Z,4.60
2023-01-29T11:06:41.687Z,4.05
2023-01-29T11:09:42.033Z,4.30
2023-01-29T11:12:33.162Z,4.18
2023-01-29T11:15:38.056Z,3.95
2023-01-29T11:21:32.059Z,3.47
2023-01-29T11:24:30.928Z,3.33
2023-01-29T11:27:34.262Z,3.33
2023-01-29T11:30:43.733Z,2.85
2023-01-29T11:33:32.110Z,3.35
2023-01-29T11:36:34.543Z,2.72
2023-01-29T11:39:23.803Z,2.20
2023-01-29T11:42:00.151Z,2.08
2023-01-29T11:44:55.278Z,1.77
2023-01-29T11:47:41.779Z,2.08
2023-01-29T11:50:28.976Z,2.35
2023-01-29T11:53:30.256Z,2.45
2023-01-29T11:56:38.301Z,2.22
2023-01-29T11:59:43.455Z,2.28
2023-01-29T12:02:43.112Z,2.60
2023-01-29T12:05:24.656Z,2.60
2023-01-29T12:08:02.914Z,3.55
2023-01-29T12:10:44.357Z,2.50
2023-01-29T12:13:28.926Z,2.83
2023-01-29T12:16:18.322Z,2.28
2023-01-29T12:19:25.907Z,2.20
2023-01-29T12:22:15.720Z,1.90
2023-01-29T12:25:02.181Z,1.88
2023-01-29T12:27:40.803Z,2.03
2023-01-29T12:30:26.606Z,2.28
2023-01-29T12:33:28.596Z,1.83
2023-01-29T12:36:32.997Z,2.22
2023-01-29T12:39:07.605Z,5.05
2023-01-29T12:41:56.724Z,2.28
2023-01-29T12:44:52.333Z,2.13
2023-01-29T12:47:40.149Z,1.83
2023-01-29T12:50:30.117Z,2.53
2023-01-29T12:53:16.364Z,2.10
2023-01-29T12:56:18.118Z,2.25
2023-01-29T12:58:57.617Z,2.30
2023-01-29T13:01:42.818Z,2.20
2023-01-29T13:04:43.176Z,2.20
2023-01-29T13:07:31.996Z,2.35
2023-01-29T13:10:28.197Z,2.15
2023-01-29T13:13:31.876Z,1.60
2023-01-29T13:16:24.642Z,1.73
2023-01-29T13:19:09.526Z,2.10
2023-01-29T13:21:46.259Z,1.70
2023-01-29T13:24:28.677Z,1.90
2023-01-29T13:27:20.949Z,2.05
2023-01-29T13:29:59.195Z,2.10
2023-01-29T13:32:35.766Z,2.10
2023-01-29T13:35:15.913Z,2.03
2023-01-29T13:37:55.332Z,2.38
2023-01-29T13:40:31.776Z,2.05
2023-01-29T13:43:04.465Z,2.25
2023-01-29T13:45:44.578Z,1.88
2023-01-29T13:48:32.689Z,2.42
2023-01-29T13:51:16.020Z,2.00
2023-01-29T13:54:19.757Z,2.30
2023-01-29T13:57:01.210Z,2.38
2023-01-29T13:59:55.526Z,1.92
2023-01-29T14:02:29.974Z,1.85
2023-01-29T14:05:30.710Z,2.47
2023-01-29T14:08:08.090Z,2.03
2023-01-29T14:10:42.462Z,2.20
2023-01-29T14:13:23.570Z,2.30
2023-01-29T14:15:59.129Z,2.30
2023-01-29T14:19:00.190Z,2.40
2023-01-29T14:21:37.895Z,2.25
2023-01-29T14:24:19.094Z,2.10
2023-01-29T14:26:57.021Z,2.17
2023-01-29T14:29:35.119Z,2.10
2023-01-29T14:32:08.331Z,2.50
2023-01-29T14:34:48.521Z,2.60
2023-01-29T14:37:22.866Z,2.40
2023-01-29T14:40:12.693Z,2.53
2023-01-29T14:43:20.701Z,2.97
2023-01-29T14:45:53.318Z,2.42
2023-01-29T14:48:46.260Z,2.70
2023-01-29T14:51:20.830Z,2.03
2023-01-29T14:54:02.657Z,2.60
2023-01-29T14:56:48.793Z,2.88
2023-01-29T14:59:35.232Z,2.72
2023-01-29T15:02:27.857Z,2.72
2023-01-29T15:05:02.539Z,3.20
2023-01-29T15:08:13.450Z,2.80
2023-01-29T15:11:31.208Z,2.40
2023-01-29T15:17:50.028Z,3.25
2023-01-29T15:20:37.150Z,2.30
2023-01-29T15:23:32.999Z,2.42
2023-01-29T15:26:07.987Z,2.33
2023-01-29T15:28:41.444Z,3.08
2023-01-29T15:31:18.510Z,2.58
2023-01-29T15:33:54.144Z,2.60
2023-01-29T15:36:30.411Z,2.97
2023-01-29T15:39:19.755Z,2.75
2023-01-29T15:42:10.971Z,2.60
2023-01-29T15:44:46.905Z,2.80
2023-01-29T15:47:20.537Z,3.10
2023-01-29T15:49:53.806Z,3.20
2023-01-29T15:52:36.365Z,2.90
2023-01-29T15:55:13.348Z,2.78
2023-01-29T15:58:07.008Z,3.10
2023-01-29T16:00:40.153Z,3.10
2023-01-29T16:03:16.888Z,3.10
2023-01-29T16:05:50.325Z,2.92
2023-01-29T16:13:40.128Z,2.90
2023-01-29T16:16:15.609Z,2.53
2023-01-29T16:18:59.522Z,3.30
2023-01-29T16:21:46.185Z,2.53
2023-01-29T16:24:22.696Z,3.03
2023-01-29T16:27:08.198Z,2.90
2023-01-29T16:29:40.866Z,2.80
2023-01-29T16:32:14.288Z,3.17
2023-01-29T16:34:50.177Z,2.80
2023-01-29T16:37:36.571Z,2.67
2023-01-29T16:40:26.843Z,2.40
2023-01-29T16:43:17.742Z,2.78
2023-01-29T16:46:16.098Z,2.47
2023-01-29T16:48:48.816Z,2.55
2023-01-29T16:51:31.979Z,2.58
2023-01-29T16:54:12.309Z,3.45
2023-01-29T16:56:51.337Z,2.60
2023-01-29T16:59:34.651Z,2.88
2023-01-29T17:02:28.711Z,3.13
2023-01-29T17:05:06.903Z,3.45
2023-01-29T17:07:39.669Z,2.80
2023-01-29T17:10:18.718Z,5.18
2023-01-29T17:13:02.657Z,4.47
2023-01-29T17:15:44.600Z,4.22
2023-01-29T17:18:22.890Z,3.95
2023-01-29T17:20:56.850Z,3.88
2023-01-29T17:23:29.469Z,3.47
2023-01-29T17:26:02.769Z,3.58
2023-01-29T17:31:08.126Z,2.95
2023-01-29T17:33:43.359Z,3.15
2023-01-29T17:36:17.898Z,3.55
2023-01-29T17:38:50.563Z,3.55
2023-01-29T17:41:27.366Z,3.85
2023-01-29T17:43:59.985Z,3.08
2023-01-29T17:46:32.587Z,3.80
2023-01-29T17:49:32.419Z,3.17
2023-01-29T17:52:05.273Z,3.20
2023-01-29T17:54:41.735Z,3.97
2023-01-29T17:57:19.109Z,4.35
2023-01-29T17:59:59.035Z,3.85
2023-01-29T18:02:33.200Z,4.13
2023-01-29T18:07:42.483Z,4.68
2023-01-29T18:10:22.040Z,5.20
2023-01-29T18:12:55.557Z,4.78
2023-01-29T18:18:06.075Z,4.80
2023-01-29T18:20:40.570Z,5.70
2023-01-29T18:23:14.308Z,5.20
2023-01-29T18:25:47.492Z,5.15
2023-01-29T18:30:53.981Z,4.85
2023-01-29T18:33:27.959Z,4.70
2023-01-29T18:36:01.583Z,4.32
2023-01-29T18:38:35.106Z,4.68
2023-01-29T18:41:12.851Z,4.88
2023-01-29T18:43:46.673Z,3.92
2023-01-29T18:46:20.768Z,4.32
2023-01-29T18:48:54.706Z,4.60
2023-01-29T18:51:28.300Z,4.70
2023-01-29T18:54:02.911Z,4.90
2023-01-29T18:56:36.441Z,5.07
2023-01-29T18:59:11.349Z,4.88
2023-01-29T19:01:47.359Z,6.50
2023-01-29T19:04:20.495Z,5.50
2023-01-29T19:06:53.936Z,4.65
2023-01-29T19:12:06.113Z,5.20
2023-01-29T19:14:39.276Z,5.55
2023-01-29T19:17:12.909Z,4.53
2023-01-29T19:19:45.514Z,4.88
2023-01-29T19:22:18.837Z,4.87
2023-01-29T19:27:26.320Z,4.68
2023-01-29T19:29:59.714Z,3.97
2023-01-29T19:35:06.024Z,4.78
2023-01-29T19:37:38.650Z,4.85
2023-01-29T19:40:11.637Z,4.70
2023-01-29T19:42:44.161Z,5.10
2023-01-29T19:45:17.029Z,5.32
2023-01-29T19:48:09.267Z,5.78
2023-01-29T19:50:42.629Z,5.43
2023-01-29T19:55:48.701Z,5.75
2023-01-29T19:58:21.232Z,5.70
2023-01-29T20:00:58.150Z,5.50
2023-01-29T20:03:31.101Z,6.72
2023-01-29T20:06:05.842Z,5.35
2023-01-29T20:08:38.445Z,6.80
2023-01-29T20:11:13.471Z,6.95
2023-01-29T20:13:48.861Z,6.57
2023-01-29T20:16:21.952Z,6.93
2023-01-29T20:19:20.817Z,8.80
2023-01-29T20:21:53.501Z,8.10
2023-01-29T20:24:26.670Z,9.43
2023-01-29T20:26:59.312Z,8.23
2023-01-29T20:29:32.407Z,9.05
2023-01-29T20:32:08.106Z,10.50
2023-01-29T20:34:41.729Z,9.10
2023-01-29T20:39:46.900Z,9.15
2023-01-29T20:42:19.504Z,10.30
2023-01-29T20:44:52.076Z,9.65
2023-01-29T20:47:24.916Z,10.07
2023-01-29T20:49:57.578Z,10.43
2023-01-29T20:52:30.258Z,9.85
2023-01-29T20:55:04.868Z,10.23
2023-01-29T20:57:38.166Z,9.85
2023-01-29T21:00:12.157Z,10.48
2023-01-29T21:02:46.151Z,8.98
2023-01-29T21:05:18.945Z,9.63
2023-01-29T21:07:51.598Z,9.23
2023-01-29T21:10:25.452Z,9.77
2023-01-29T21:12:57.989Z,9.05
2023-01-29T21:15:30.753Z,9.73
2023-01-29T21:18:04.839Z,9.77
2023-01-29T21:20:37.862Z,9.63
2023-01-29T21:23:10.892Z,10.10
2023-01-29T21:25:44.878Z,9.63
2023-01-29T21:28:17.526Z,9.45
2023-01-29T21:30:50.184Z,8.73
2023-01-29T21:33:24.274Z,8.50
2023-01-29T21:36:06.666Z,7.63
2023-01-29T21:38:40.238Z,6.93
2023-01-29T21:41:12.953Z,7.53
2023-01-29T21:43:45.557Z,7.20
2023-01-29T21:46:18.275Z,6.75
2023-01-29T21:48:50.851Z,6.35
2023-01-29T21:51:24.077Z,6.80
2023-01-29T21:53:57.019Z,6.75
2023-01-29T21:56:29.540Z,7.00
2023-01-29T21:59:02.632Z,6.07
2023-01-29T22:01:37.746Z,5.93
2023-01-29T22:04:11.824Z,7.03
2023-01-29T22:09:16.817Z,6.60
2023-01-29T22:11:49.453Z,6.35
2023-01-29T22:14:22.073Z,6.30
2023-01-29T22:16:54.938Z,6.10
2023-01-29T22:19:29.438Z,6.47
2023-01-29T22:22:02.010Z,5.85
2023-01-29T22:24:34.585Z,6.80
2023-01-29T22:27:07.332Z,4.97
2023-01-29T22:29:40.091Z,6.45
2023-01-29T22:32:13.506Z,6.40
2023-01-29T22:37:18.598Z,5.30
2023-01-29T22:39:51.175Z,6.30
2023-01-29T22:42:23.719Z,5.80
2023-01-29T22:44:56.361Z,5.22
2023-01-29T22:47:28.863Z,6.10
2023-01-29T22:50:12.857Z,8.47
2023-01-29T22:52:53.828Z,7.38
2023-01-29T22:55:26.719Z,7.07
2023-01-29T22:57:59.523Z,5.95
2023-01-29T23:00:32.059Z,5.93
2023-01-29T23:03:04.666Z,5.80
2023-01-29T23:05:37.293Z,5.43
2023-01-29T23:08:13.412Z,5.55
2023-01-29T23:10:46.188Z,5.57
2023-01-29T23:13:18.873Z,4.82
2023-01-29T23:15:59.697Z,4.65
2023-01-29T23:18:32.316Z,5.32
2023-01-29T23:21:05.563Z,5.35
2023-01-29T23:23:38.888Z,5.65
2023-01-29T23:29:04.247Z,4.50
2023-01-29T23:31:37.022Z,5.15
2023-01-29T23:34:09.727Z,5.03
2023-01-29T23:36:43.174Z,5.32
2023-01-29T23:41:48.302Z,5.72
2023-01-29T23:44:21.014Z,6.10
2023-01-29T23:46:53.876Z,5.10
2023-01-29T23:49:26.716Z,5.63
2023-01-29T23:51:59.403Z,4.75
2023-01-29T23:54:31.973Z,5.35
2023-01-29T23:57:04.710Z,4.30
2023-01-29T23:59:37.436Z,5.68
